createdAt,value
2018-11-12T00:00:50.486Z,10.84
2018-11-12T00:01:50.387Z,10.89
2018-11-12T00:02:50.287Z,10.92
2018-11-12T00:03:50.176Z,10.87
2018-11-12T00:04:50.075Z,10.93
2018-11-12T00:05:49.975Z,10.81
2018-11-12T00:06:49.876Z,10.84
2018-11-12T00:07:49.765Z,10.76
2018-11-12T00:08:49.665Z,10.76
2018-11-12T00:09:49.567Z,10.92
2018-11-12T00:10:49.454Z,10.94
2018-11-12T00:11:49.355Z,10.87
2018-11-12T00:12:49.254Z,10.96
2018-11-12T00:13:49.155Z,10.89
2018-11-12T00:14:49.046Z,10.84
2018-11-12T00:15:48.944Z,10.87
2018-11-12T00:16:48.845Z,10.84
2018-11-12T00:17:48.745Z,10.84
2018-11-12T00:18:48.635Z,10.87
2018-11-12T00:19:48.533Z,10.74
2018-11-12T00:20:48.436Z,10.72
2018-11-12T00:21:48.363Z,10.84
2018-11-12T00:22:48.225Z,10.86
2018-11-12T00:23:48.124Z,10.84
2018-11-12T00:24:48.025Z,10.86
2018-11-12T00:25:47.912Z,10.87
2018-11-12T00:26:47.812Z,10.79
2018-11-12T00:27:47.713Z,10.79
2018-11-12T00:28:47.614Z,10.75
2018-11-12T00:29:47.503Z,10.75
2018-11-12T00:30:47.402Z,10.72
2018-11-12T00:31:47.303Z,10.72
2018-11-12T00:32:47.205Z,10.75
2018-11-12T00:33:47.092Z,10.75
2018-11-12T00:34:46.992Z,10.74
2018-11-12T00:35:46.892Z,10.72
2018-11-12T00:36:46.805Z,10.74
2018-11-12T00:37:46.981Z,10.78
2018-11-12T00:38:46.583Z,10.76
2018-11-12T00:39:46.482Z,10.76
2018-11-12T00:40:46.383Z,10.82
2018-11-12T00:41:46.270Z,10.78
2018-11-12T00:42:46.176Z,10.82
2018-11-12T00:43:46.071Z,10.87
2018-11-12T00:44:45.972Z,10.93
2018-11-12T00:45:45.861Z,10.76
2018-11-12T00:46:45.761Z,10.81
2018-11-12T00:47:45.912Z,10.72
2018-11-12T00:48:45.562Z,10.76
2018-11-12T00:49:45.451Z,10.78
2018-11-12T00:50:45.350Z,10.78
2018-11-12T00:51:45.251Z,10.75
2018-11-12T00:52:45.152Z,10.68
2018-11-12T00:53:45.041Z,10.74
2018-11-12T00:54:44.942Z,10.69
2018-11-12T00:55:44.843Z,10.64
2018-11-12T00:56:44.744Z,10.72
2018-11-12T00:57:44.629Z,10.76
2018-11-12T00:58:44.530Z,10.72
2018-11-12T00:59:44.432Z,10.79
2018-11-12T01:00:44.338Z,10.74
2018-11-12T01:01:44.220Z,10.74
2018-11-12T01:02:44.206Z,10.76
2018-11-12T01:03:44.022Z,10.75
2018-11-12T01:04:43.923Z,10.82
2018-11-12T01:05:43.810Z,10.74
2018-11-12T01:06:43.710Z,10.82
2018-11-12T01:07:43.862Z,10.75
2018-11-12T01:08:43.510Z,10.84
2018-11-12T01:09:43.400Z,10.94
2018-11-12T01:10:43.301Z,10.87
2018-11-12T01:11:43.204Z,10.89
2018-11-12T01:12:43.101Z,10.84
2018-11-12T01:13:42.989Z,10.79
2018-11-12T01:14:42.890Z,10.78
2018-11-12T01:15:42.790Z,10.79
2018-11-12T01:16:42.690Z,10.86
2018-11-12T01:17:42.581Z,10.76
2018-11-12T01:18:42.482Z,10.92
2018-11-12T01:19:42.381Z,10.96
2018-11-12T01:20:42.281Z,10.87
2018-11-12T01:21:42.169Z,10.89
2018-11-12T01:22:42.069Z,10.90
2018-11-12T01:23:41.970Z,10.78
2018-11-12T01:24:41.871Z,10.72
2018-11-12T01:25:41.759Z,10.76
2018-11-12T01:26:41.659Z,10.86
2018-11-12T01:27:41.561Z,10.82
2018-11-12T01:28:41.463Z,10.92
2018-11-12T01:29:41.349Z,10.86
2018-11-12T01:30:41.248Z,10.93
2018-11-12T01:31:41.152Z,10.89
2018-11-12T01:32:41.049Z,10.96
2018-11-12T01:33:40.950Z,10.94
2018-11-12T01:34:40.839Z,10.92
2018-11-12T01:35:40.740Z,10.90
2018-11-12T01:36:40.640Z,10.82
2018-11-12T01:37:40.541Z,10.84
2018-11-12T01:38:40.428Z,10.89
2018-11-12T01:39:40.329Z,10.87
2018-11-12T01:40:40.230Z,10.75
2018-11-12T01:41:40.142Z,10.84
2018-11-12T01:42:40.019Z,10.82
2018-11-12T01:43:39.920Z,10.78
2018-11-12T01:44:39.820Z,10.76
2018-11-12T01:45:39.720Z,10.78
2018-11-12T01:46:39.621Z,10.86
2018-11-12T01:47:39.808Z,10.75
2018-11-12T01:48:39.408Z,10.81
2018-11-12T01:49:39.309Z,10.71
2018-11-12T01:50:39.211Z,10.71
2018-11-12T01:51:39.099Z,10.84
2018-11-12T01:52:38.999Z,10.76
2018-11-12T01:53:38.901Z,10.78
2018-11-12T01:54:38.801Z,10.78
2018-11-12T01:55:38.687Z,10.76
2018-11-12T01:56:38.588Z,10.76
2018-11-12T01:57:38.488Z,10.76
2018-11-12T01:58:38.391Z,10.76
2018-11-12T01:59:38.279Z,10.78
2018-11-12T02:00:38.178Z,10.76
2018-11-12T02:01:38.136Z,10.84
2018-11-12T02:02:37.980Z,10.75
2018-11-12T02:03:37.867Z,10.78
2018-11-12T02:04:37.777Z,10.72
2018-11-12T02:05:37.669Z,10.86
2018-11-12T02:06:37.569Z,10.76
2018-11-12T02:07:37.461Z,10.81
2018-11-12T02:08:37.436Z,10.72
2018-11-12T02:09:37.259Z,10.75
2018-11-12T02:10:37.159Z,10.72
2018-11-12T02:11:37.047Z,10.81
2018-11-12T02:12:36.948Z,10.78
2018-11-12T02:13:36.848Z,10.81
2018-11-12T02:14:36.772Z,10.75
2018-11-12T02:15:36.651Z,10.92
2018-11-12T02:16:36.538Z,10.92
2018-11-12T02:17:36.439Z,10.78
2018-11-12T02:18:36.338Z,10.86
2018-11-12T02:19:36.239Z,10.75
2018-11-12T02:20:36.127Z,10.82
2018-11-12T02:21:36.037Z,10.92
2018-11-12T02:22:36.182Z,10.71
2018-11-12T02:23:35.828Z,10.76
2018-11-12T02:24:35.720Z,10.76
2018-11-12T02:25:35.618Z,10.87
2018-11-12T02:26:35.518Z,10.81
2018-11-12T02:27:35.418Z,10.76
2018-11-12T02:28:35.307Z,10.82
2018-11-12T02:29:35.207Z,10.72
2018-11-12T02:30:35.120Z,10.71
2018-11-12T02:31:35.022Z,10.79
2018-11-12T02:32:34.898Z,10.75
2018-11-12T02:33:34.798Z,10.74
2018-11-12T02:34:34.698Z,10.72
2018-11-12T02:35:34.599Z,10.74
2018-11-12T02:36:34.487Z,10.78
2018-11-12T02:37:34.392Z,10.78
2018-11-12T02:38:34.287Z,10.74
2018-11-12T02:39:34.188Z,10.75
2018-11-12T02:40:34.077Z,10.75
2018-11-12T02:41:33.977Z,10.71
2018-11-12T02:42:34.127Z,10.67
2018-11-12T02:43:33.778Z,10.64
2018-11-12T02:44:33.666Z,10.69
2018-11-12T02:45:33.571Z,10.61
2018-11-12T02:46:33.466Z,10.67
2018-11-12T02:47:33.366Z,10.64
2018-11-12T02:48:33.257Z,10.60
2018-11-12T02:49:33.157Z,10.53
2018-11-12T02:50:33.056Z,10.61
2018-11-12T02:51:32.958Z,10.59
2018-11-12T02:52:32.844Z,10.59
2018-11-12T02:53:32.744Z,10.54
2018-11-12T02:54:32.646Z,10.60
2018-11-12T02:55:32.551Z,10.60
2018-11-12T02:56:32.438Z,10.67
2018-11-12T02:57:32.394Z,10.63
2018-11-12T02:58:32.241Z,10.59
2018-11-12T02:59:32.136Z,10.59
2018-11-12T03:00:32.024Z,10.57
2018-11-12T03:01:31.925Z,10.60
2018-11-12T03:02:32.125Z,10.56
2018-11-12T03:03:31.726Z,10.56
2018-11-12T03:04:31.621Z,10.46
2018-11-12T03:05:31.516Z,10.44
2018-11-12T03:06:31.415Z,10.48
2018-11-12T03:07:31.376Z,10.44
2018-11-12T03:08:31.204Z,10.51
2018-11-12T03:09:31.106Z,10.40
2018-11-12T03:10:31.004Z,10.51
2018-11-12T03:11:30.895Z,10.41
2018-11-12T03:12:30.794Z,10.37
2018-11-12T03:13:30.695Z,10.40
2018-11-12T03:14:30.596Z,10.44
2018-11-12T03:15:30.482Z,10.51
2018-11-12T03:16:30.388Z,10.49
2018-11-12T03:17:30.284Z,10.41
2018-11-12T03:18:30.184Z,10.37
2018-11-12T03:19:30.073Z,10.38
2018-11-12T03:20:29.975Z,10.46
2018-11-12T03:21:29.874Z,10.48
2018-11-12T03:22:29.775Z,10.53
2018-11-12T03:23:29.662Z,10.59
2018-11-12T03:24:29.562Z,10.42
2018-11-12T03:25:29.463Z,10.53
2018-11-12T03:26:29.364Z,10.56
2018-11-12T03:27:29.269Z,10.46
2018-11-12T03:28:29.153Z,10.60
2018-11-12T03:29:29.054Z,10.44
2018-11-12T03:30:28.943Z,10.46
2018-11-12T03:31:28.849Z,10.42
2018-11-12T03:32:28.743Z,10.51
2018-11-12T03:33:28.643Z,10.46
2018-11-12T03:34:28.535Z,10.46
2018-11-12T03:35:28.432Z,10.38
2018-11-12T03:36:28.334Z,10.37
2018-11-12T03:37:28.234Z,10.51
2018-11-12T03:38:28.121Z,10.37
2018-11-12T03:39:28.045Z,10.35
2018-11-12T03:40:27.921Z,10.37
2018-11-12T03:41:27.822Z,10.46
2018-11-12T03:42:27.961Z,10.46
2018-11-12T03:43:27.613Z,10.49
2018-11-12T03:44:27.513Z,10.44
2018-11-12T03:45:27.412Z,10.37
2018-11-12T03:46:27.302Z,10.35
2018-11-12T03:47:27.212Z,10.38
2018-11-12T03:48:27.101Z,10.41
2018-11-12T03:49:27.002Z,10.46
2018-11-12T03:50:26.890Z,10.35
2018-11-12T03:51:26.792Z,10.49
2018-11-12T03:52:26.692Z,10.37
2018-11-12T03:53:26.593Z,10.37
2018-11-12T03:54:26.481Z,10.41
2018-11-12T03:55:26.393Z,10.42
2018-11-12T03:56:26.294Z,10.40
2018-11-12T03:57:26.171Z,10.28
2018-11-12T03:58:26.071Z,10.33
2018-11-12T03:59:25.971Z,10.31
2018-11-12T04:00:25.935Z,10.41
2018-11-12T04:01:25.760Z,10.33
2018-11-12T04:02:25.659Z,10.31
2018-11-12T04:03:25.562Z,10.40
2018-11-12T04:04:25.460Z,10.37
2018-11-12T04:05:25.350Z,10.38
2018-11-12T04:06:25.250Z,10.34
2018-11-12T04:07:25.193Z,10.40
2018-11-12T04:08:25.052Z,10.46
2018-11-12T04:09:24.956Z,10.42
2018-11-12T04:10:24.838Z,10.44
2018-11-12T04:11:24.739Z,10.42
2018-11-12T04:12:24.639Z,10.46
2018-11-12T04:13:24.531Z,10.44
2018-11-12T04:14:24.430Z,10.49
2018-11-12T04:15:24.329Z,10.51
2018-11-12T04:16:24.219Z,10.56
2018-11-12T04:17:24.118Z,10.59
2018-11-12T04:18:24.031Z,10.46
2018-11-12T04:19:23.919Z,10.44
2018-11-12T04:20:23.815Z,10.51
2018-11-12T04:21:23.711Z,10.46
2018-11-12T04:22:23.859Z,10.46
2018-11-12T04:23:23.510Z,10.42
2018-11-12T04:24:23.401Z,10.44
2018-11-12T04:25:23.301Z,10.46
2018-11-12T04:26:23.199Z,10.44
2018-11-12T04:27:23.102Z,10.42
2018-11-12T04:28:22.987Z,10.53
2018-11-12T04:29:22.888Z,10.48
2018-11-12T04:30:22.788Z,10.38
2018-11-12T04:31:22.689Z,10.51
2018-11-12T04:32:22.577Z,10.41
2018-11-12T04:33:22.478Z,10.44
2018-11-12T04:34:22.378Z,10.56
2018-11-12T04:35:22.281Z,10.46
2018-11-12T04:36:22.168Z,10.46
2018-11-12T04:37:22.068Z,10.48
2018-11-12T04:38:21.968Z,10.49
2018-11-12T04:39:21.869Z,10.34
2018-11-12T04:40:21.760Z,10.48
2018-11-12T04:41:21.658Z,10.38
2018-11-12T04:42:21.806Z,10.25
2018-11-12T04:43:21.457Z,10.35
2018-11-12T04:44:21.347Z,10.35
2018-11-12T04:45:21.263Z,10.33
2018-11-12T04:46:21.147Z,10.34
2018-11-12T04:47:21.049Z,10.28
2018-11-12T04:48:20.936Z,10.22
2018-11-12T04:49:20.836Z,10.22
2018-11-12T04:50:20.737Z,10.28
2018-11-12T04:51:20.637Z,10.22
2018-11-12T04:52:20.526Z,10.25
2018-11-12T04:53:20.427Z,10.22
2018-11-12T04:54:20.327Z,10.15
2018-11-12T04:55:20.326Z,10.07
2018-11-12T04:56:20.116Z,10.17
2018-11-12T04:57:20.017Z,10.13
2018-11-12T04:58:19.919Z,10.02
2018-11-12T04:59:19.816Z,10.04
2018-11-12T05:00:19.706Z,10.07
2018-11-12T05:01:19.605Z,9.98
2018-11-12T05:02:19.757Z,9.98
2018-11-12T05:03:19.407Z,9.95
2018-11-12T05:04:19.294Z,9.92
2018-11-12T05:05:19.195Z,9.87
2018-11-12T05:06:19.098Z,9.87
2018-11-12T05:07:19.043Z,9.89
2018-11-12T05:08:18.890Z,9.86
2018-11-12T05:09:18.789Z,9.82
2018-11-12T05:10:18.692Z,9.91
2018-11-12T05:11:18.588Z,9.94
2018-11-12T05:12:18.473Z,9.91
2018-11-12T05:13:18.374Z,9.98
2018-11-12T05:14:18.276Z,9.97
2018-11-12T05:15:18.179Z,10.01
2018-11-12T05:16:18.064Z,10.02
2018-11-12T05:17:17.968Z,10.07
2018-11-12T05:18:17.865Z,10.02
2018-11-12T05:19:17.754Z,10.05
2018-11-12T05:20:17.653Z,10.12
2018-11-12T05:21:17.553Z,10.09
2018-11-12T05:22:17.455Z,10.09
2018-11-12T05:23:17.353Z,10.09
2018-11-12T05:24:17.244Z,10.07
2018-11-12T05:25:17.146Z,10.04
2018-11-12T05:26:17.046Z,10.07
2018-11-12T05:27:16.932Z,10.04
2018-11-12T05:28:16.832Z,10.05
2018-11-12T05:29:16.735Z,10.19
2018-11-12T05:30:16.635Z,10.17
2018-11-12T05:31:16.526Z,10.20
2018-11-12T05:32:16.424Z,10.19
2018-11-12T05:33:16.324Z,10.09
2018-11-12T05:34:16.225Z,10.10
2018-11-12T05:35:16.116Z,10.09
2018-11-12T05:36:16.012Z,10.07
2018-11-12T05:37:15.913Z,10.15
2018-11-12T05:38:15.888Z,10.15
2018-11-12T05:39:15.703Z,10.12
2018-11-12T05:40:15.605Z,10.02
2018-11-12T05:41:15.503Z,10.01
2018-11-12T05:42:15.404Z,10.15
2018-11-12T05:43:15.291Z,9.99
2018-11-12T05:44:15.192Z,10.07
2018-11-12T05:45:15.094Z,10.07
2018-11-12T05:46:14.997Z,10.07
2018-11-12T05:47:14.883Z,10.01
2018-11-12T05:48:14.782Z,10.10
2018-11-12T05:49:14.685Z,10.07
2018-11-12T05:50:14.572Z,10.02
2018-11-12T05:51:14.472Z,10.02
2018-11-12T05:52:14.372Z,9.95
2018-11-12T05:53:14.272Z,10.01
2018-11-12T05:54:14.173Z,10.01
2018-11-12T05:55:14.061Z,10.05
2018-11-12T05:56:13.964Z,10.10
2018-11-12T05:57:13.869Z,10.02
2018-11-12T05:58:13.751Z,10.09
2018-11-12T05:59:13.650Z,10.12
2018-11-12T06:00:13.551Z,10.16
2018-11-12T06:01:13.451Z,10.07
2018-11-12T06:02:13.351Z,10.09
2018-11-12T06:03:13.241Z,10.04
2018-11-12T06:04:13.141Z,10.10
2018-11-12T06:05:13.041Z,10.07
2018-11-12T06:06:12.931Z,10.23
2018-11-12T06:07:12.830Z,10.16
2018-11-12T06:08:12.730Z,10.23
2018-11-12T06:09:12.631Z,10.26
2018-11-12T06:10:12.532Z,10.20
2018-11-12T06:11:12.421Z,10.26
2018-11-12T06:12:12.321Z,10.19
2018-11-12T06:13:12.221Z,10.19
2018-11-12T06:14:12.109Z,10.20
2018-11-12T06:15:12.009Z,10.16
2018-11-12T06:16:11.909Z,10.20
2018-11-12T06:17:11.811Z,10.22
2018-11-12T06:18:11.702Z,10.22
2018-11-12T06:19:11.600Z,10.20
2018-11-12T06:20:11.503Z,10.40
2018-11-12T06:21:11.401Z,10.38
2018-11-12T06:22:11.289Z,10.48
2018-11-12T06:23:11.189Z,10.40
2018-11-12T06:24:11.090Z,10.37
2018-11-12T06:25:10.991Z,10.38
2018-11-12T06:26:10.879Z,10.40
2018-11-12T06:27:10.779Z,10.38
2018-11-12T06:28:10.680Z,10.37
2018-11-12T06:29:10.569Z,10.46
2018-11-12T06:30:10.468Z,10.42
2018-11-12T06:31:10.413Z,10.57
2018-11-12T06:32:10.272Z,10.61
2018-11-12T06:33:10.170Z,10.59
2018-11-12T06:34:10.059Z,10.60
2018-11-12T06:35:09.963Z,10.59
2018-11-12T06:36:09.861Z,10.64
2018-11-12T06:37:09.774Z,10.57
2018-11-12T06:38:09.648Z,10.60
2018-11-12T06:39:09.549Z,10.67
2018-11-12T06:40:09.465Z,10.57
2018-11-12T06:41:09.338Z,10.59
2018-11-12T06:42:09.237Z,10.64
2018-11-12T06:43:09.180Z,10.60
2018-11-12T06:44:09.040Z,10.64
2018-11-12T06:45:08.927Z,10.67
2018-11-12T06:46:08.826Z,10.68
2018-11-12T06:47:08.727Z,10.69
2018-11-12T06:48:08.628Z,10.72
2018-11-12T06:49:08.517Z,10.71
2018-11-12T06:50:08.418Z,10.71
2018-11-12T06:51:08.318Z,10.71
2018-11-12T06:52:08.219Z,10.78
2018-11-12T06:53:08.215Z,10.75
2018-11-12T06:54:08.008Z,10.82
2018-11-12T06:55:07.907Z,10.74
2018-11-12T06:56:07.807Z,10.72
2018-11-12T06:57:07.696Z,10.84
2018-11-12T06:58:07.597Z,10.72
2018-11-12T06:59:07.498Z,10.86
2018-11-12T07:00:07.401Z,10.94
2018-11-12T07:01:07.287Z,10.90
2018-11-12T07:02:07.188Z,10.94
2018-11-12T07:03:07.087Z,10.99
2018-11-12T07:04:06.988Z,10.93
2018-11-12T07:05:06.878Z,10.93
2018-11-12T07:06:06.776Z,10.90
2018-11-12T07:07:06.797Z,10.96
2018-11-12T07:08:06.577Z,10.94
2018-11-12T07:09:06.465Z,10.96
2018-11-12T07:10:06.365Z,11.00
2018-11-12T07:11:06.266Z,11.10
2018-11-12T07:12:06.166Z,11.02
2018-11-12T07:13:06.077Z,11.08
2018-11-12T07:14:05.956Z,11.05
2018-11-12T07:15:05.857Z,11.14
2018-11-12T07:16:05.758Z,11.19
2018-11-12T07:17:05.644Z,11.33
2018-11-12T07:18:05.560Z,11.40
2018-11-12T07:19:05.607Z,11.29
2018-11-12T07:20:05.346Z,11.40
2018-11-12T07:21:05.235Z,11.44
2018-11-12T07:22:05.136Z,11.51
2018-11-12T07:23:05.036Z,11.48
2018-11-12T07:24:04.936Z,11.52
2018-11-12T07:25:04.852Z,11.55
2018-11-12T07:26:04.724Z,11.55
2018-11-12T07:27:04.625Z,11.57
2018-11-12T07:28:04.538Z,11.59
2018-11-12T07:29:04.415Z,11.65
2018-11-12T07:30:04.316Z,11.66
2018-11-12T07:31:04.233Z,11.62
2018-11-12T07:32:04.117Z,11.73
2018-11-12T07:33:04.005Z,11.73
2018-11-12T07:34:03.904Z,11.73
2018-11-12T07:35:03.809Z,11.77
2018-11-12T07:36:03.705Z,11.86
2018-11-12T07:37:03.606Z,11.88
2018-11-12T07:38:03.494Z,11.88
2018-11-12T07:39:03.395Z,11.84
2018-11-12T07:40:03.298Z,12.00
2018-11-12T07:41:03.196Z,11.95
2018-11-12T07:42:03.186Z,12.00
2018-11-12T07:43:02.984Z,12.00
2018-11-12T07:44:02.885Z,12.00
2018-11-12T07:45:02.787Z,12.09
2018-11-12T07:46:02.688Z,12.12
2018-11-12T07:47:02.586Z,12.10
2018-11-12T07:48:02.476Z,12.07
2018-11-12T07:49:02.382Z,12.12
2018-11-12T07:50:02.279Z,12.24
2018-11-12T07:51:02.182Z,12.24
2018-11-12T07:52:02.079Z,12.17
2018-11-12T07:53:01.966Z,12.18
2018-11-12T07:54:01.866Z,12.28
2018-11-12T07:55:01.766Z,12.29
2018-11-12T07:56:01.670Z,12.32
2018-11-12T07:57:01.568Z,12.35
2018-11-12T07:58:01.467Z,12.39
2018-11-12T07:59:01.357Z,12.37
2018-11-12T08:00:01.258Z,12.40
2018-11-12T08:01:01.214Z,12.43
2018-11-12T08:02:01.058Z,12.47
2018-11-12T08:03:00.967Z,12.43
2018-11-12T08:04:00.848Z,12.37
2018-11-12T08:05:00.747Z,12.47
2018-11-12T08:06:00.649Z,12.47
2018-11-12T08:07:00.701Z,12.53
2018-11-12T08:08:00.450Z,12.57
2018-11-12T08:09:00.381Z,12.50
2018-11-12T08:10:00.251Z,12.47
2018-11-12T08:11:00.138Z,12.50
2018-11-12T08:12:00.067Z,12.55
2018-11-12T08:12:59.939Z,12.58
2018-11-12T08:13:59.841Z,12.45
2018-11-12T08:14:59.741Z,12.61
2018-11-12T08:15:59.641Z,12.64
2018-11-12T08:16:59.529Z,12.58
2018-11-12T08:17:59.429Z,12.46
2018-11-12T08:18:59.329Z,12.53
2018-11-12T08:19:59.231Z,12.47
2018-11-12T08:20:59.132Z,12.47
2018-11-12T08:21:59.031Z,12.45
2018-11-12T08:22:58.922Z,12.35
2018-11-12T08:23:58.884Z,12.45
2018-11-12T08:24:58.721Z,12.37
2018-11-12T08:25:58.622Z,12.40
2018-11-12T08:26:58.526Z,12.46
2018-11-12T08:27:58.422Z,12.42
2018-11-12T08:28:58.324Z,12.42
2018-11-12T08:29:58.294Z,12.45
2018-11-12T08:30:58.112Z,12.42
2018-11-12T08:31:58.013Z,12.49
2018-11-12T08:32:57.931Z,12.42
2018-11-12T08:33:57.813Z,12.45
2018-11-12T08:34:57.713Z,12.45
2018-11-12T08:35:57.603Z,12.57
2018-11-12T08:36:57.508Z,12.55
2018-11-12T08:37:57.411Z,12.47
2018-11-12T08:38:57.306Z,12.49
2018-11-12T08:39:57.359Z,12.45
2018-11-12T08:40:57.117Z,12.54
2018-11-12T08:41:56.993Z,12.47
2018-11-12T08:42:56.893Z,12.47
2018-11-12T08:43:56.807Z,12.53
2018-11-12T08:44:56.707Z,12.53
2018-11-12T08:45:56.637Z,12.55
2018-11-12T08:46:56.499Z,12.49
2018-11-12T08:47:56.396Z,12.46
2018-11-12T08:48:56.324Z,12.55
2018-11-12T08:49:56.219Z,12.50
2018-11-12T08:50:56.086Z,12.53
2018-11-12T08:51:55.990Z,12.53
2018-11-12T08:52:55.888Z,12.49
2018-11-12T08:53:55.775Z,12.46
2018-11-12T08:54:55.753Z,12.45
2018-11-12T08:55:55.576Z,12.50
2018-11-12T08:56:55.476Z,12.49
2018-11-12T08:57:55.453Z,12.47
2018-11-12T08:58:55.332Z,12.62
2018-11-12T08:59:55.165Z,12.55
2018-11-12T09:00:55.122Z,12.62
2018-11-12T09:01:54.966Z,12.64
2018-11-12T09:02:54.868Z,12.64
2018-11-12T09:03:54.823Z,12.75
2018-11-12T09:04:54.668Z,12.60
2018-11-12T09:05:54.610Z,12.76
2018-11-12T09:06:54.456Z,12.73
2018-11-12T09:07:54.357Z,12.76
2018-11-12T09:08:54.261Z,12.76
2018-11-12T09:09:54.200Z,12.85
2018-11-12T09:10:54.060Z,12.85
2018-11-12T09:11:53.960Z,12.90
2018-11-12T09:12:53.849Z,12.95
2018-11-12T09:13:53.748Z,13.04
2018-11-12T09:14:53.650Z,13.15
2018-11-12T09:15:53.651Z,13.18
2018-11-12T09:16:53.451Z,13.22
2018-11-12T09:17:53.351Z,13.05
2018-11-12T09:18:53.251Z,13.19
2018-11-12T09:19:53.139Z,13.25
2018-11-12T09:20:53.040Z,13.22
2018-11-12T09:21:52.940Z,13.37
2018-11-12T09:22:52.846Z,13.37
2018-11-12T09:23:52.740Z,13.39
2018-11-12T09:24:52.643Z,13.25
2018-11-12T09:25:52.542Z,13.31
2018-11-12T09:26:52.443Z,13.38
2018-11-12T09:27:52.332Z,13.38
2018-11-12T09:28:52.233Z,13.30
2018-11-12T09:29:52.132Z,13.28
2018-11-12T09:30:53.391Z,13.33
2018-11-12T09:31:51.935Z,13.28
2018-11-12T09:32:51.861Z,13.37
2018-11-12T09:33:51.736Z,13.46
2018-11-12T09:34:51.652Z,13.47
2018-11-12T09:35:51.536Z,13.47
2018-11-12T09:36:51.531Z,13.57
2018-11-12T09:37:51.327Z,13.52
2018-11-12T09:38:51.296Z,13.57
2018-11-12T09:39:51.125Z,13.57
2018-11-12T09:40:51.025Z,13.63
2018-11-12T09:41:50.928Z,13.70
2018-11-12T09:42:50.856Z,13.71
2018-11-12T09:43:50.728Z,13.74
2018-11-12T09:44:50.633Z,13.77
2018-11-12T09:45:50.580Z,13.85
2018-11-12T09:46:50.417Z,13.90
2018-11-12T09:47:50.404Z,13.93
2018-11-12T09:48:50.270Z,13.96
2018-11-12T09:49:50.119Z,14.07
2018-11-12T09:50:50.022Z,14.12
2018-11-12T09:51:49.920Z,14.22
2018-11-12T09:52:49.820Z,14.25
2018-11-12T09:53:49.843Z,14.26
2018-11-12T09:54:49.723Z,14.36
2018-11-12T09:55:49.525Z,14.35
2018-11-12T09:56:49.426Z,14.32
2018-11-12T09:57:49.323Z,14.22
2018-11-12T09:58:49.212Z,14.14
2018-11-12T09:59:49.113Z,14.10
2018-11-12T10:00:49.229Z,14.20
2018-11-12T10:01:49.144Z,14.26
2018-11-12T10:02:49.634Z,14.20
2018-11-12T10:03:49.665Z,14.32
2018-11-12T10:04:49.986Z,14.29
2018-11-12T10:05:49.492Z,14.35
2018-11-12T10:06:49.944Z,14.36
2018-11-12T10:07:49.778Z,14.29
2018-11-12T10:08:50.811Z,14.33
2018-11-12T10:09:49.998Z,14.41
2018-11-12T10:10:50.425Z,14.37
2018-11-12T10:11:50.533Z,14.40
2018-11-12T10:12:50.153Z,14.41
2018-11-12T10:13:50.242Z,14.37
2018-11-12T10:14:50.082Z,14.40
2018-11-12T10:15:50.270Z,14.44
2018-11-12T10:16:50.289Z,14.58
2018-11-12T10:17:50.055Z,14.45
2018-11-12T10:18:47.211Z,14.47
2018-11-12T10:19:47.188Z,14.40
2018-11-12T10:20:47.011Z,14.50
2018-11-12T10:21:46.912Z,14.47
2018-11-12T10:22:46.812Z,14.44
2018-11-12T10:23:46.713Z,14.45
2018-11-12T10:24:46.614Z,14.44
2018-11-12T10:25:46.514Z,14.44
2018-11-12T10:26:46.415Z,14.44
2018-11-12T10:27:46.315Z,14.53
2018-11-12T10:28:46.216Z,14.47
2018-11-12T10:29:46.116Z,14.45
2018-11-12T10:30:46.017Z,14.54
2018-11-12T10:31:45.917Z,14.41
2018-11-12T10:32:45.818Z,14.43
2018-11-12T10:33:45.722Z,14.36
2018-11-12T10:34:45.621Z,14.41
2018-11-12T10:35:45.522Z,14.47
2018-11-12T10:36:45.420Z,14.43
2018-11-12T10:37:45.321Z,14.54
2018-11-12T10:38:45.222Z,14.41
2018-11-12T10:39:45.174Z,14.63
2018-11-12T10:40:45.040Z,14.62
2018-11-12T10:41:44.923Z,14.58
2018-11-12T10:42:44.847Z,14.62
2018-11-12T10:43:44.731Z,14.54
2018-11-12T10:44:44.628Z,14.60
2018-11-12T10:45:44.533Z,14.60
2018-11-12T10:46:44.415Z,14.60
2018-11-12T10:47:44.346Z,14.60
2018-11-12T10:48:44.216Z,14.58
2018-11-12T10:49:44.120Z,14.55
2018-11-12T10:50:44.015Z,14.59
2018-11-12T10:51:43.916Z,14.50
2018-11-12T10:52:43.815Z,14.47
2018-11-12T10:53:50.042Z,14.45
2018-11-12T10:54:43.695Z,14.40
2018-11-12T10:55:43.601Z,14.33
2018-11-12T10:56:43.435Z,14.40
2018-11-12T10:57:43.332Z,14.37
2018-11-12T10:58:43.237Z,14.37
2018-11-12T10:59:43.146Z,14.41
2018-11-12T11:00:43.028Z,14.36
2018-11-12T11:01:42.921Z,14.36
2018-11-12T11:02:42.822Z,14.41
2018-11-12T11:03:42.722Z,14.40
2018-11-12T11:04:42.627Z,14.40
2018-11-12T11:05:42.523Z,14.44
2018-11-12T11:06:42.424Z,14.36
2018-11-12T11:07:42.313Z,14.40
2018-11-12T11:08:42.215Z,14.36
2018-11-12T11:09:42.113Z,14.37
2018-11-12T11:10:42.015Z,14.36
2018-11-12T11:11:41.914Z,14.36
2018-11-12T11:12:41.816Z,14.41
2018-11-12T11:13:41.749Z,14.40
2018-11-12T11:14:41.617Z,14.41
2018-11-12T11:15:41.607Z,14.40
2018-11-12T11:16:41.420Z,14.47
2018-11-12T11:17:41.319Z,14.45
2018-11-12T11:18:41.220Z,14.62
2018-11-12T11:19:41.155Z,14.55
2018-11-12T11:20:41.009Z,14.82
2018-11-12T11:21:40.908Z,14.85
2018-11-12T11:22:40.808Z,14.99
2018-11-12T11:23:40.710Z,15.09
2018-11-12T11:24:40.609Z,15.21
2018-11-12T11:25:40.550Z,15.17
2018-11-12T11:26:40.482Z,15.22
2018-11-12T11:27:40.311Z,15.27
2018-11-12T11:28:40.211Z,15.27
2018-11-12T11:29:40.126Z,15.21
2018-11-12T11:30:40.028Z,15.28
2018-11-12T11:31:39.918Z,15.25
2018-11-12T11:32:39.816Z,15.27
2018-11-12T11:33:39.715Z,15.28
2018-11-12T11:34:39.616Z,15.29
2018-11-12T11:35:39.515Z,15.36
2018-11-12T11:36:39.418Z,15.39
2018-11-12T11:37:39.316Z,15.43
2018-11-12T11:38:39.219Z,15.39
2018-11-12T11:39:39.118Z,15.39
2018-11-12T11:40:39.065Z,15.52
2018-11-12T11:41:38.919Z,15.49
2018-11-12T11:42:38.820Z,15.51
2018-11-12T11:43:38.719Z,15.68
2018-11-12T11:44:38.609Z,15.62
2018-11-12T11:45:38.523Z,15.76
2018-11-12T11:46:38.411Z,15.70
2018-11-12T11:47:38.345Z,15.70
2018-11-12T11:48:38.219Z,15.67
2018-11-12T11:49:38.112Z,15.76
2018-11-12T11:50:38.069Z,15.73
2018-11-12T11:51:37.959Z,15.68
2018-11-12T11:52:37.814Z,15.68
2018-11-12T11:53:37.714Z,15.65
2018-11-12T11:54:37.615Z,15.64
2018-11-12T11:55:37.517Z,15.64
2018-11-12T11:56:37.527Z,15.64
2018-11-12T11:57:37.485Z,15.75
2018-11-12T11:58:37.217Z,15.79
2018-11-12T11:59:37.117Z,15.72
2018-11-12T12:00:37.029Z,15.83
2018-11-12T12:01:36.947Z,15.86
2018-11-12T12:02:36.831Z,15.98
2018-11-12T12:03:36.732Z,15.94
2018-11-12T12:04:36.632Z,15.84
2018-11-12T12:05:36.532Z,15.86
2018-11-12T12:06:36.433Z,15.82
2018-11-12T12:07:36.346Z,15.77
2018-11-12T12:08:36.289Z,15.77
2018-11-12T12:09:36.140Z,15.88
2018-11-12T12:10:36.038Z,15.90
2018-11-12T12:11:35.937Z,15.95
2018-11-12T12:12:35.836Z,15.94
2018-11-12T12:13:35.738Z,15.97
2018-11-12T12:14:35.637Z,15.92
2018-11-12T12:15:35.539Z,16.02
2018-11-12T12:16:35.439Z,16.00
2018-11-12T12:17:35.384Z,16.13
2018-11-12T12:18:35.264Z,16.12
2018-11-12T12:19:35.141Z,16.04
2018-11-12T12:20:35.042Z,16.16
2018-11-12T12:21:34.943Z,16.09
2018-11-12T12:22:34.844Z,15.98
2018-11-12T12:23:34.744Z,15.97
2018-11-12T12:24:34.688Z,16.02
2018-11-12T12:25:34.646Z,16.00
2018-11-12T12:26:34.449Z,16.01
2018-11-12T12:27:34.346Z,16.00
2018-11-12T12:28:34.246Z,15.97
2018-11-12T12:29:34.155Z,15.94
2018-11-12T12:30:34.047Z,15.94
2018-11-12T12:31:33.949Z,15.83
2018-11-12T12:32:33.850Z,15.84
2018-11-12T12:33:33.751Z,15.92
2018-11-12T12:34:33.651Z,15.92
2018-11-12T12:35:33.559Z,15.92
2018-11-12T12:36:33.518Z,15.88
2018-11-12T12:37:33.388Z,15.84
2018-11-12T12:38:33.266Z,15.80
2018-11-12T12:39:33.166Z,15.91
2018-11-12T12:40:33.065Z,15.95
2018-11-12T12:41:32.967Z,15.97
2018-11-12T12:42:32.868Z,15.98
2018-11-12T12:43:32.767Z,15.95
2018-11-12T12:44:32.711Z,16.16
2018-11-12T12:45:32.690Z,16.12
2018-11-12T12:46:32.470Z,16.26
2018-11-12T12:47:32.370Z,16.21
2018-11-12T12:48:32.271Z,16.29
2018-11-12T12:49:32.221Z,16.31
2018-11-12T12:50:32.076Z,16.33
2018-11-12T12:51:32.030Z,16.31
2018-11-12T12:52:31.873Z,16.56